Карточка аэропорта UUBW

Внимание!
Информация на этой странице в стадии наполнения.
Если вы не увидели какой-то информации, или заметили неточность - пожалуйста сообщите нам!
Спасибо!
Команда RU-STAFF
Название аэропортаРаменское
Название аэропорта (англ.)Ramenskoye
Превышение1325 ft. (403.9 m.)
Координаты55°33.168', 38°8.9820000000002'
Высота перехода10000 ft
Эшелон переходаQNH>=1013hPa:FL110; QNH<1013hPa:FL120; QNH<977hPa:FL130
Коды ответчика
Зона ОрВДМосква РПИ (UUWV)
Данные METARUUBW 012130Z 20003MPS 9999 SCT033CB 14/14 Q1005 R30/210250 NOSIG
Проноз погоды (TAF)UUBW 011956Z 0121/0221 22003MPS 6000 FEW007 BKN016 TX14/0212Z TN09/0204Z TEMPO 0121/0123 2100 -SHRA BR SCT005 BKN016CB TEMPO 0123/0207 0300 FG OVC002 TEMPO 0214/0221 -SHRA FEW005 BKN013CB BECMG 0215/0217 07006MPS
NOTAMshow/hide NOTAM
AWOS   TABLE

Информация о ВПП

ВПП Длина ВПП (м.) Покрытие Курс ВПП Частота ILS
124600Цементобетон121 
304600Цементобетон301 

Диспетчерские позиции


Сценарии

Сценарий
Нет результатов.


Спутниковое изображение